sensor_id;sensor_type;location;lat;lon;timestamp;temperature;humidity
31542;DHT22;18152;49.986;8.646;2023-05-29T00:00:45;14.50;99.90
31542;DHT22;18152;49.986;8.646;2023-05-29T00:03:10;14.40;99.90
31542;DHT22;18152;49.986;8.646;2023-05-29T00:05:36;14.40;99.90
31542;DHT22;18152;49.986;8.646;2023-05-29T00:08:02;14.40;99.90
31542;DHT22;18152;49.986;8.646;2023-05-29T00:10:27;14.30;99.90
31542;DHT22;18152;49.986;8.646;2023-05-29T00:12:53;14.20;99.90
31542;DHT22;18152;49.986;8.646;2023-05-29T00:15:18;14.20;99.90
31542;DHT22;18152;49.986;8.646;2023-05-29T00:17:44;14.20;99.90
31542;DHT22;18152;49.986;8.646;2023-05-29T00:20:10;14.10;99.90
31542;DHT22;18152;49.986;8.646;2023-05-29T00:22:37;14.10;99.90
31542;DHT22;18152;49.986;8.646;2023-05-29T00:25:07;14.10;99.90
31542;DHT22;18152;49.986;8.646;2023-05-29T00:27:33;14.10;99.90
31542;DHT22;18152;49.986;8.646;2023-05-29T00:30:00;14.10;99.90
31542;DHT22;18152;49.986;8.646;2023-05-29T00:32:26;14.10;99.90
31542;DHT22;18152;49.986;8.646;2023-05-29T00:34:53;14.00;99.90
31542;DHT22;18152;49.986;8.646;2023-05-29T00:37:18;14.00;99.90
31542;DHT22;18152;49.986;8.646;2023-05-29T00:39:47;14.00;99.90
31542;DHT22;18152;49.986;8.646;2023-05-29T00:42:12;13.90;99.90
31542;DHT22;18152;49.986;8.646;2023-05-29T00:44:38;13.90;99.90
31542;DHT22;18152;49.986;8.646;2023-05-29T00:47:04;13.80;99.90
31542;DHT22;18152;49.986;8.646;2023-05-29T00:49:29;13.80;99.90
31542;DHT22;18152;49.986;8.646;2023-05-29T00:51:55;13.70;99.90
31542;DHT22;18152;49.986;8.646;2023-05-29T00:54:24;13.70;99.90
31542;DHT22;18152;49.986;8.646;2023-05-29T00:56:51;13.70;99.90
31542;DHT22;18152;49.986;8.646;2023-05-29T00:59:17;13.60;99.90
31542;DHT22;18152;49.986;8.646;2023-05-29T01:01:47;13.60;99.90
31542;DHT22;18152;49.986;8.646;2023-05-29T01:04:14;13.60;99.90
31542;DHT22;18152;49.986;8.646;2023-05-29T01:06:40;13.60;99.90
31542;DHT22;18152;49.986;8.646;2023-05-29T01:09:06;13.60;99.90
31542;DHT22;18152;49.986;8.646;2023-05-29T01:14:59;13.50;99.90
31542;DHT22;18152;49.986;8.646;2023-05-29T01:17:57;13.40;99.90
31542;DHT22;18152;49.986;8.646;2023-05-29T01:20:31;13.30;99.90
31542;DHT22;18152;49.986;8.646;2023-05-29T01:23:32;13.40;99.90
31542;DHT22;18152;49.986;8.646;2023-05-29T01:28:37;13.30;99.90
31542;DHT22;18152;49.986;8.646;2023-05-29T01:31:03;13.30;99.90
31542;DHT22;18152;49.986;8.646;2023-05-29T01:33:29;13.30;99.90
31542;DHT22;18152;49.986;8.646;2023-05-29T01:35:54;13.30;99.90
31542;DHT22;18152;49.986;8.646;2023-05-29T01:38:20;13.40;99.90
31542;DHT22;18152;49.986;8.646;2023-05-29T01:40:46;13.40;99.90
31542;DHT22;18152;49.986;8.646;2023-05-29T01:43:12;13.40;99.90
31542;DHT22;18152;49.986;8.646;2023-05-29T01:45:39;13.40;99.90
31542;DHT22;18152;49.986;8.646;2023-05-29T01:48:05;13.40;99.90
31542;DHT22;18152;49.986;8.646;2023-05-29T01:50:31;13.40;99.90
31542;DHT22;18152;49.986;8.646;2023-05-29T01:52:57;13.40;99.90
31542;DHT22;18152;49.986;8.646;2023-05-29T01:55:22;13.40;99.90
31542;DHT22;18152;49.986;8.646;2023-05-29T01:57:49;13.30;99.90
31542;DHT22;18152;49.986;8.646;2023-05-29T02:00:17;13.30;99.90
31542;DHT22;18152;49.986;8.646;2023-05-29T02:02:44;13.20;99.90
31542;DHT22;18152;49.986;8.646;2023-05-29T02:05:09;13.10;99.90
31542;DHT22;18152;49.986;8.646;2023-05-29T02:07:36;13.10;99.90
31542;DHT22;18152;49.986;8.646;2023-05-29T02:10:05;13.20;99.90
31542;DHT22;18152;49.986;8.646;2023-05-29T02:12:30;13.10;99.90
31542;DHT22;18152;49.986;8.646;2023-05-29T02:14:56;13.10;99.90
31542;DHT22;18152;49.986;8.646;2023-05-29T02:17:22;13.00;99.90
31542;DHT22;18152;49.986;8.646;2023-05-29T02:19:47;13.00;99.90
31542;DHT22;18152;49.986;8.646;2023-05-29T02:22:13;12.90;99.90
31542;DHT22;18152;49.986;8.646;2023-05-29T02:24:39;12.90;99.90
31542;DHT22;18152;49.986;8.646;2023-05-29T02:27:04;12.90;99.90
31542;DHT22;18152;49.986;8.646;2023-05-29T02:29:30;12.90;99.90
31542;DHT22;18152;49.986;8.646;2023-05-29T02:31:56;12.80;99.90
31542;DHT22;18152;49.986;8.646;2023-05-29T02:34:21;12.80;99.90
31542;DHT22;18152;49.986;8.646;2023-05-29T02:36:50;12.90;99.90
31542;DHT22;18152;49.986;8.646;2023-05-29T02:39:20;12.80;99.90
31542;DHT22;18152;49.986;8.646;2023-05-29T02:41:45;12.80;99.90
31542;DHT22;18152;49.986;8.646;2023-05-29T02:44:11;12.90;99.90
31542;DHT22;18152;49.986;8.646;2023-05-29T02:46:37;12.80;99.90
31542;DHT22;18152;49.986;8.646;2023-05-29T02:49:02;12.80;99.90
31542;DHT22;18152;49.986;8.646;2023-05-29T02:51:28;12.80;99.90
31542;DHT22;18152;49.986;8.646;2023-05-29T02:53:53;12.80;99.90
31542;DHT22;18152;49.986;8.646;2023-05-29T02:56:19;12.80;99.90
31542;DHT22;18152;49.986;8.646;2023-05-29T02:58:49;12.70;99.90
31542;DHT22;18152;49.986;8.646;2023-05-29T03:01:15;12.70;99.90
31542;DHT22;18152;49.986;8.646;2023-05-29T03:03:40;12.80;99.90
31542;DHT22;18152;49.986;8.646;2023-05-29T03:06:06;12.80;99.90
31542;DHT22;18152;49.986;8.646;2023-05-29T03:08:31;12.80;99.90
31542;DHT22;18152;49.986;8.646;2023-05-29T03:10:58;12.70;99.90
31542;DHT22;18152;49.986;8.646;2023-05-29T03:13:24;12.70;99.90
31542;DHT22;18152;49.986;8.646;2023-05-29T03:15:50;12.70;99.90
31542;DHT22;18152;49.986;8.646;2023-05-29T03:18:16;12.60;99.90
31542;DHT22;18152;49.986;8.646;2023-05-29T03:20:41;12.70;99.90
31542;DHT22;18152;49.986;8.646;2023-05-29T03:23:07;12.70;99.90
31542;DHT22;18152;49.986;8.646;2023-05-29T03:25:32;12.60;99.90
31542;DHT22;18152;49.986;8.646;2023-05-29T03:27:58;12.60;99.90
31542;DHT22;18152;49.986;8.646;2023-05-29T03:30:24;12.60;99.90
31542;DHT22;18152;49.986;8.646;2023-05-29T03:32:49;12.60;99.90
31542;DHT22;18152;49.986;8.646;2023-05-29T03:35:15;12.60;99.90
31542;DHT22;18152;49.986;8.646;2023-05-29T03:37:40;12.60;99.90
31542;DHT22;18152;49.986;8.646;2023-05-29T03:40:06;12.60;99.90
31542;DHT22;18152;49.986;8.646;2023-05-29T03:42:32;12.60;99.90
31542;DHT22;18152;49.986;8.646;2023-05-29T03:44:58;12.50;99.90
31542;DHT22;18152;49.986;8.646;2023-05-29T03:47:23;12.60;99.90
31542;DHT22;18152;49.986;8.646;2023-05-29T03:49:49;12.70;99.90
31542;DHT22;18152;49.986;8.646;2023-05-29T03:52:15;12.60;99.90
31542;DHT22;18152;49.986;8.646;2023-05-29T03:54:40;12.70;99.90
31542;DHT22;18152;49.986;8.646;2023-05-29T03:57:06;12.80;99.90
31542;DHT22;18152;49.986;8.646;2023-05-29T03:59:32;12.80;99.90
31542;DHT22;18152;49.986;8.646;2023-05-29T04:01:57;12.80;99.90
31542;DHT22;18152;49.986;8.646;2023-05-29T04:04:23;12.80;99.90
31542;DHT22;18152;49.986;8.646;2023-05-29T04:06:49;12.80;99.90
31542;DHT22;18152;49.986;8.646;2023-05-29T04:09:14;12.90;99.90
31542;DHT22;18152;49.986;8.646;2023-05-29T04:11:40;12.90;99.90
31542;DHT22;18152;49.986;8.646;2023-05-29T04:14:07;12.90;99.90
31542;DHT22;18152;49.986;8.646;2023-05-29T04:16:32;12.90;99.90
31542;DHT22;18152;49.986;8.646;2023-05-29T04:18:58;13.00;99.90
31542;DHT22;18152;49.986;8.646;2023-05-29T04:21:23;13.00;99.90
31542;DHT22;18152;49.986;8.646;2023-05-29T04:23:49;13.00;99.90
31542;DHT22;18152;49.986;8.646;2023-05-29T04:26:15;13.10;99.90
31542;DHT22;18152;49.986;8.646;2023-05-29T04:28:40;13.10;99.90
31542;DHT22;18152;49.986;8.646;2023-05-29T04:31:08;13.10;99.90
31542;DHT22;18152;49.986;8.646;2023-05-29T04:33:33;13.20;99.90
31542;DHT22;18152;49.986;8.646;2023-05-29T04:36:02;13.20;99.90
31542;DHT22;18152;49.986;8.646;2023-05-29T04:38:29;13.20;99.90
31542;DHT22;18152;49.986;8.646;2023-05-29T04:40:56;13.30;99.90
31542;DHT22;18152;49.986;8.646;2023-05-29T04:43:24;13.30;99.90
31542;DHT22;18152;49.986;8.646;2023-05-29T04:45:52;13.40;99.90
31542;DHT22;18152;49.986;8.646;2023-05-29T04:48:18;13.40;99.90
31542;DHT22;18152;49.986;8.646;2023-05-29T04:50:43;13.40;99.90
31542;DHT22;18152;49.986;8.646;2023-05-29T04:53:09;13.50;99.90
31542;DHT22;18152;49.986;8.646;2023-05-29T04:55:36;13.50;99.90
31542;DHT22;18152;49.986;8.646;2023-05-29T04:58:02;13.60;99.90
31542;DHT22;18152;49.986;8.646;2023-05-29T05:00:27;13.60;99.90
31542;DHT22;18152;49.986;8.646;2023-05-29T05:02:53;13.70;99.90
31542;DHT22;18152;49.986;8.646;2023-05-29T05:05:18;13.70;99.90
31542;DHT22;18152;49.986;8.646;2023-05-29T05:07:45;13.80;99.90
31542;DHT22;18152;49.986;8.646;2023-05-29T05:10:11;13.90;99.90
31542;DHT22;18152;49.986;8.646;2023-05-29T05:12:37;14.00;99.90
31542;DHT22;18152;49.986;8.646;2023-05-29T05:15:02;14.00;99.90
31542;DHT22;18152;49.986;8.646;2023-05-29T05:17:28;14.10;99.90
31542;DHT22;18152;49.986;8.646;2023-05-29T05:19:54;14.20;99.90
31542;DHT22;18152;49.986;8.646;2023-05-29T05:22:20;14.30;99.90
31542;DHT22;18152;49.986;8.646;2023-05-29T05:24:45;14.40;99.90
31542;DHT22;18152;49.986;8.646;2023-05-29T05:27:11;14.40;99.90
31542;DHT22;18152;49.986;8.646;2023-05-29T05:29:36;14.50;99.90
31542;DHT22;18152;49.986;8.646;2023-05-29T05:32:02;14.50;99.90
31542;DHT22;18152;49.986;8.646;2023-05-29T05:34:28;14.60;99.90
31542;DHT22;18152;49.986;8.646;2023-05-29T05:36:53;14.70;99.90
31542;DHT22;18152;49.986;8.646;2023-05-29T05:39:19;14.80;99.90
31542;DHT22;18152;49.986;8.646;2023-05-29T05:41:44;14.90;99.90
31542;DHT22;18152;49.986;8.646;2023-05-29T05:44:10;15.00;99.90
31542;DHT22;18152;49.986;8.646;2023-05-29T05:46:35;15.10;99.90
31542;DHT22;18152;49.986;8.646;2023-05-29T05:49:01;15.20;99.90
31542;DHT22;18152;49.986;8.646;2023-05-29T05:51:27;15.30;99.90
31542;DHT22;18152;49.986;8.646;2023-05-29T05:53:53;15.40;99.90
31542;DHT22;18152;49.986;8.646;2023-05-29T05:56:19;15.40;99.90
31542;DHT22;18152;49.986;8.646;2023-05-29T05:58:44;15.50;99.90
31542;DHT22;18152;49.986;8.646;2023-05-29T06:01:10;15.60;99.90
31542;DHT22;18152;49.986;8.646;2023-05-29T06:03:36;15.70;99.90
31542;DHT22;18152;49.986;8.646;2023-05-29T06:06:03;15.80;99.90
31542;DHT22;18152;49.986;8.646;2023-05-29T06:08:29;15.90;99.90
31542;DHT22;18152;49.986;8.646;2023-05-29T06:10:55;16.00;99.90
31542;DHT22;18152;49.986;8.646;2023-05-29T06:13:21;16.10;99.90
31542;DHT22;18152;49.986;8.646;2023-05-29T06:15:46;16.20;99.90
31542;DHT22;18152;49.986;8.646;2023-05-29T06:18:12;16.40;99.90
31542;DHT22;18152;49.986;8.646;2023-05-29T06:20:38;16.50;99.90
31542;DHT22;18152;49.986;8.646;2023-05-29T06:23:03;16.70;99.90
31542;DHT22;18152;49.986;8.646;2023-05-29T06:25:29;16.80;99.90
31542;DHT22;18152;49.986;8.646;2023-05-29T06:28:02;16.90;99.90
31542;DHT22;18152;49.986;8.646;2023-05-29T06:30:28;17.00;99.90
31542;DHT22;18152;49.986;8.646;2023-05-29T06:32:53;17.20;99.90
31542;DHT22;18152;49.986;8.646;2023-05-29T06:35:19;17.30;99.90
31542;DHT22;18152;49.986;8.646;2023-05-29T06:37:45;17.30;99.90
31542;DHT22;18152;49.986;8.646;2023-05-29T06:40:14;17.40;99.90
31542;DHT22;18152;49.986;8.646;2023-05-29T06:42:42;17.70;99.90
31542;DHT22;18152;49.986;8.646;2023-05-29T06:45:11;17.90;99.90
31542;DHT22;18152;49.986;8.646;2023-05-29T06:47:39;18.10;99.90
31542;DHT22;18152;49.986;8.646;2023-05-29T06:50:05;18.20;99.90
31542;DHT22;18152;49.986;8.646;2023-05-29T06:52:31;18.40;99.90
31542;DHT22;18152;49.986;8.646;2023-05-29T06:54:56;18.50;99.90
31542;DHT22;18152;49.986;8.646;2023-05-29T06:57:22;18.60;99.90
31542;DHT22;18152;49.986;8.646;2023-05-29T06:59:47;18.80;99.90
31542;DHT22;18152;49.986;8.646;2023-05-29T07:02:13;18.90;99.90
31542;DHT22;18152;49.986;8.646;2023-05-29T07:04:38;18.90;99.90
31542;DHT22;18152;49.986;8.646;2023-05-29T07:07:04;19.10;99.90
31542;DHT22;18152;49.986;8.646;2023-05-29T07:09:30;19.30;99.90
31542;DHT22;18152;49.986;8.646;2023-05-29T07:11:55;19.40;99.90
31542;DHT22;18152;49.986;8.646;2023-05-29T07:14:21;19.60;99.20
31542;DHT22;18152;49.986;8.646;2023-05-29T07:16:46;19.60;99.90
31542;DHT22;18152;49.986;8.646;2023-05-29T07:19:12;19.80;98.50
31542;DHT22;18152;49.986;8.646;2023-05-29T07:21:39;19.90;99.90
31542;DHT22;18152;49.986;8.646;2023-05-29T07:24:05;20.20;98.30
31542;DHT22;18152;49.986;8.646;2023-05-29T07:26:31;20.20;98.20
31542;DHT22;18152;49.986;8.646;2023-05-29T07:28:57;20.40;97.10
31542;DHT22;18152;49.986;8.646;2023-05-29T07:31:23;20.30;97.40
31542;DHT22;18152;49.986;8.646;2023-05-29T07:33:51;20.30;97.70
31542;DHT22;18152;49.986;8.646;2023-05-29T07:36:17;20.50;96.90
31542;DHT22;18152;49.986;8.646;2023-05-29T07:38:43;20.60;98.60
31542;DHT22;18152;49.986;8.646;2023-05-29T07:41:09;20.70;98.30
31542;DHT22;18152;49.986;8.646;2023-05-29T07:43:35;21.00;95.20
31542;DHT22;18152;49.986;8.646;2023-05-29T07:46:00;21.10;95.70
31542;DHT22;18152;49.986;8.646;2023-05-29T07:48:26;21.10;97.80
31542;DHT22;18152;49.986;8.646;2023-05-29T07:50:52;21.10;96.60
31542;DHT22;18152;49.986;8.646;2023-05-29T07:53:17;21.40;96.60
31542;DHT22;18152;49.986;8.646;2023-05-29T07:55:43;21.60;94.50
31542;DHT22;18152;49.986;8.646;2023-05-29T07:58:09;21.50;94.80
31542;DHT22;18152;49.986;8.646;2023-05-29T08:00:36;21.70;93.40
31542;DHT22;18152;49.986;8.646;2023-05-29T08:03:03;21.70;94.80
31542;DHT22;18152;49.986;8.646;2023-05-29T08:05:29;22.00;94.10
31542;DHT22;18152;49.986;8.646;2023-05-29T08:07:54;22.50;93.20
31542;DHT22;18152;49.986;8.646;2023-05-29T08:10:20;22.60;91.90
31542;DHT22;18152;49.986;8.646;2023-05-29T08:12:46;22.50;91.60
31542;DHT22;18152;49.986;8.646;2023-05-29T08:15:11;22.60;93.50
31542;DHT22;18152;49.986;8.646;2023-05-29T08:17:37;22.70;91.80
31542;DHT22;18152;49.986;8.646;2023-05-29T08:20:03;22.80;88.10
31542;DHT22;18152;49.986;8.646;2023-05-29T08:22:32;22.80;91.30
31542;DHT22;18152;49.986;8.646;2023-05-29T08:24:59;23.20;90.50
31542;DHT22;18152;49.986;8.646;2023-05-29T08:27:24;23.40;90.20
31542;DHT22;18152;49.986;8.646;2023-05-29T08:29:50;23.20;87.30
31542;DHT22;18152;49.986;8.646;2023-05-29T08:32:16;23.40;90.90
31542;DHT22;18152;49.986;8.646;2023-05-29T08:34:41;23.60;86.80
31542;DHT22;18152;49.986;8.646;2023-05-29T08:37:07;23.60;90.80
31542;DHT22;18152;49.986;8.646;2023-05-29T08:39:33;23.80;90.50
31542;DHT22;18152;49.986;8.646;2023-05-29T08:42:04;24.00;83.70
31542;DHT22;18152;49.986;8.646;2023-05-29T08:44:33;23.60;89.40
31542;DHT22;18152;49.986;8.646;2023-05-29T08:47:02;23.90;89.40
31542;DHT22;18152;49.986;8.646;2023-05-29T08:49:40;23.90;90.80
31542;DHT22;18152;49.986;8.646;2023-05-29T08:52:17;24.20;88.40
31542;DHT22;18152;49.986;8.646;2023-05-29T08:54:44;24.40;86.00
31542;DHT22;18152;49.986;8.646;2023-05-29T08:57:11;24.50;89.60
31542;DHT22;18152;49.986;8.646;2023-05-29T08:59:42;24.60;81.00
31542;DHT22;18152;49.986;8.646;2023-05-29T09:02:10;24.50;88.20
31542;DHT22;18152;49.986;8.646;2023-05-29T09:04:37;24.60;83.90
31542;DHT22;18152;49.986;8.646;2023-05-29T09:07:02;24.70;88.10
31542;DHT22;18152;49.986;8.646;2023-05-29T09:09:29;24.90;80.10
31542;DHT22;18152;49.986;8.646;2023-05-29T09:11:57;24.90;83.20
31542;DHT22;18152;49.986;8.646;2023-05-29T09:14:42;24.90;85.80
31542;DHT22;18152;49.986;8.646;2023-05-29T09:17:10;25.10;82.20
31542;DHT22;18152;49.986;8.646;2023-05-29T09:19:37;25.00;78.60
31542;DHT22;18152;49.986;8.646;2023-05-29T09:22:14;24.90;80.10
31542;DHT22;18152;49.986;8.646;2023-05-29T09:24:41;25.00;84.10
31542;DHT22;18152;49.986;8.646;2023-05-29T09:27:08;25.30;82.00
31542;DHT22;18152;49.986;8.646;2023-05-29T09:29:43;25.50;81.20
31542;DHT22;18152;49.986;8.646;2023-05-29T09:32:11;26.10;77.50
31542;DHT22;18152;49.986;8.646;2023-05-29T09:34:37;25.80;80.20
31542;DHT22;18152;49.986;8.646;2023-05-29T09:37:07;25.90;83.40
31542;DHT22;18152;49.986;8.646;2023-05-29T09:39:47;26.00;80.90
31542;DHT22;18152;49.986;8.646;2023-05-29T09:42:14;26.20;78.20
31542;DHT22;18152;49.986;8.646;2023-05-29T09:44:40;26.70;72.90
31542;DHT22;18152;49.986;8.646;2023-05-29T09:47:06;26.60;76.20
31542;DHT22;18152;49.986;8.646;2023-05-29T09:49:32;26.60;80.50
31542;DHT22;18152;49.986;8.646;2023-05-29T09:51:58;26.70;78.40
31542;DHT22;18152;49.986;8.646;2023-05-29T09:54:27;26.90;75.40
31542;DHT22;18152;49.986;8.646;2023-05-29T09:56:56;27.10;75.00
31542;DHT22;18152;49.986;8.646;2023-05-29T09:59:24;27.50;70.10
31542;DHT22;18152;49.986;8.646;2023-05-29T10:02:04;27.60;76.30
31542;DHT22;18152;49.986;8.646;2023-05-29T10:04:31;27.70;75.10
31542;DHT22;18152;49.986;8.646;2023-05-29T10:07:09;28.10;72.40
31542;DHT22;18152;49.986;8.646;2023-05-29T10:09:41;27.70;75.40
31542;DHT22;18152;49.986;8.646;2023-05-29T10:12:11;28.10;70.50
31542;DHT22;18152;49.986;8.646;2023-05-29T10:14:37;28.30;72.50
31542;DHT22;18152;49.986;8.646;2023-05-29T10:17:07;28.10;71.50
31542;DHT22;18152;49.986;8.646;2023-05-29T10:19:36;27.40;71.20
31542;DHT22;18152;49.986;8.646;2023-05-29T10:22:04;27.50;73.20
31542;DHT22;18152;49.986;8.646;2023-05-29T10:24:31;27.90;74.80
31542;DHT22;18152;49.986;8.646;2023-05-29T10:26:58;28.10;69.20
31542;DHT22;18152;49.986;8.646;2023-05-29T10:29:34;28.40;66.50
31542;DHT22;18152;49.986;8.646;2023-05-29T10:32:29;28.30;69.60
31542;DHT22;18152;49.986;8.646;2023-05-29T10:35:20;28.30;67.20
31542;DHT22;18152;49.986;8.646;2023-05-29T10:37:54;28.40;64.40
31542;DHT22;18152;49.986;8.646;2023-05-29T10:40:26;27.70;59.80
31542;DHT22;18152;49.986;8.646;2023-05-29T10:42:52;27.60;63.00
31542;DHT22;18152;49.986;8.646;2023-05-29T10:50:45;28.70;57.60
31542;DHT22;18152;49.986;8.646;2023-05-29T10:53:24;28.30;71.80
31542;DHT22;18152;49.986;8.646;2023-05-29T10:55:51;29.20;58.50
31542;DHT22;18152;49.986;8.646;2023-05-29T10:58:24;29.00;56.00
31542;DHT22;18152;49.986;8.646;2023-05-29T11:00:52;28.40;62.30
31542;DHT22;18152;49.986;8.646;2023-05-29T11:03:31;29.00;63.20
31542;DHT22;18152;49.986;8.646;2023-05-29T11:06:02;29.20;60.50
31542;DHT22;18152;49.986;8.646;2023-05-29T11:08:43;29.20;65.90
31542;DHT22;18152;49.986;8.646;2023-05-29T11:11:14;29.20;64.60
31542;DHT22;18152;49.986;8.646;2023-05-29T11:13:40;29.20;60.80
31542;DHT22;18152;49.986;8.646;2023-05-29T11:18:43;29.40;63.20
31542;DHT22;18152;49.986;8.646;2023-05-29T11:21:31;28.60;57.20
31542;DHT22;18152;49.986;8.646;2023-05-29T11:24:00;29.20;56.80
31542;DHT22;18152;49.986;8.646;2023-05-29T11:26:29;28.70;54.50
31542;DHT22;18152;49.986;8.646;2023-05-29T11:29:04;28.50;58.40
31542;DHT22;18152;49.986;8.646;2023-05-29T11:31:37;28.90;61.70
31542;DHT22;18152;49.986;8.646;2023-05-29T11:34:04;29.60;59.80
31542;DHT22;18152;49.986;8.646;2023-05-29T11:36:33;29.00;60.00
31542;DHT22;18152;49.986;8.646;2023-05-29T11:38:59;28.40;56.30
31542;DHT22;18152;49.986;8.646;2023-05-29T11:41:25;28.60;60.30
31542;DHT22;18152;49.986;8.646;2023-05-29T11:43:57;28.90;66.10
31542;DHT22;18152;49.986;8.646;2023-05-29T11:46:23;28.30;57.30
31542;DHT22;18152;49.986;8.646;2023-05-29T11:48:51;28.60;59.80
31542;DHT22;18152;49.986;8.646;2023-05-29T11:51:17;28.70;60.00
31542;DHT22;18152;49.986;8.646;2023-05-29T11:53:45;29.20;64.70
31542;DHT22;18152;49.986;8.646;2023-05-29T11:56:12;29.10;57.70
31542;DHT22;18152;49.986;8.646;2023-05-29T11:58:38;28.90;63.10
31542;DHT22;18152;49.986;8.646;2023-05-29T12:01:05;29.80;60.30
31542;DHT22;18152;49.986;8.646;2023-05-29T12:03:37;29.90;60.80
31542;DHT22;18152;49.986;8.646;2023-05-29T12:06:04;29.80;59.20
31542;DHT22;18152;49.986;8.646;2023-05-29T12:08:29;29.60;55.80
31542;DHT22;18152;49.986;8.646;2023-05-29T12:10:55;29.10;57.90
31542;DHT22;18152;49.986;8.646;2023-05-29T12:13:21;28.90;58.00
31542;DHT22;18152;49.986;8.646;2023-05-29T12:15:49;28.70;58.60
31542;DHT22;18152;49.986;8.646;2023-05-29T12:18:16;29.00;54.80
31542;DHT22;18152;49.986;8.646;2023-05-29T12:20:41;29.20;58.10
31542;DHT22;18152;49.986;8.646;2023-05-29T12:23:07;29.10;56.10
31542;DHT22;18152;49.986;8.646;2023-05-29T12:25:34;29.40;56.60
31542;DHT22;18152;49.986;8.646;2023-05-29T12:28:02;29.70;55.80
31542;DHT22;18152;49.986;8.646;2023-05-29T12:30:28;29.90;56.90
31542;DHT22;18152;49.986;8.646;2023-05-29T12:32:53;29.40;58.80
31542;DHT22;18152;49.986;8.646;2023-05-29T12:37:48;28.90;56.20
31542;DHT22;18152;49.986;8.646;2023-05-29T12:40:19;28.80;51.10
31542;DHT22;18152;49.986;8.646;2023-05-29T12:42:46;28.70;53.50
31542;DHT22;18152;49.986;8.646;2023-05-29T12:45:13;29.10;51.00
31542;DHT22;18152;49.986;8.646;2023-05-29T12:50:20;28.50;52.70
31542;DHT22;18152;49.986;8.646;2023-05-29T12:53:15;28.60;49.10
31542;DHT22;18152;49.986;8.646;2023-05-29T12:55:41;28.80;54.30
31542;DHT22;18152;49.986;8.646;2023-05-29T12:58:12;29.00;52.50
31542;DHT22;18152;49.986;8.646;2023-05-29T13:00:40;28.70;50.20
31542;DHT22;18152;49.986;8.646;2023-05-29T13:03:06;28.40;49.90
31542;DHT22;18152;49.986;8.646;2023-05-29T13:05:33;28.70;56.70
31542;DHT22;18152;49.986;8.646;2023-05-29T13:07:59;28.50;48.60
31542;DHT22;18152;49.986;8.646;2023-05-29T13:10:26;29.00;55.20
31542;DHT22;18152;49.986;8.646;2023-05-29T13:12:55;29.10;59.20
31542;DHT22;18152;49.986;8.646;2023-05-29T13:15:24;28.80;56.40
31542;DHT22;18152;49.986;8.646;2023-05-29T13:17:50;29.20;58.00
31542;DHT22;18152;49.986;8.646;2023-05-29T13:20:16;29.10;52.90
31542;DHT22;18152;49.986;8.646;2023-05-29T13:22:43;29.00;52.10
31542;DHT22;18152;49.986;8.646;2023-05-29T13:25:11;28.60;52.60
31542;DHT22;18152;49.986;8.646;2023-05-29T13:27:38;28.50;51.50
31542;DHT22;18152;49.986;8.646;2023-05-29T13:30:05;28.30;50.80
31542;DHT22;18152;49.986;8.646;2023-05-29T13:32:31;28.10;51.40
31542;DHT22;18152;49.986;8.646;2023-05-29T13:34:57;27.70;55.10
31542;DHT22;18152;49.986;8.646;2023-05-29T13:37:23;27.40;51.90
31542;DHT22;18152;49.986;8.646;2023-05-29T13:39:49;27.50;55.20
31542;DHT22;18152;49.986;8.646;2023-05-29T13:42:15;27.40;57.90
31542;DHT22;18152;49.986;8.646;2023-05-29T13:44:40;27.10;51.60
31542;DHT22;18152;49.986;8.646;2023-05-29T13:47:06;27.40;53.40
31542;DHT22;18152;49.986;8.646;2023-05-29T13:49:34;27.30;54.90
31542;DHT22;18152;49.986;8.646;2023-05-29T13:51:59;27.00;51.30
31542;DHT22;18152;49.986;8.646;2023-05-29T13:54:25;27.30;57.50
31542;DHT22;18152;49.986;8.646;2023-05-29T13:56:52;27.30;56.00
31542;DHT22;18152;49.986;8.646;2023-05-29T13:59:18;27.60;61.70
31542;DHT22;18152;49.986;8.646;2023-05-29T14:01:44;27.90;63.90
31542;DHT22;18152;49.986;8.646;2023-05-29T14:04:10;27.60;54.40
31542;DHT22;18152;49.986;8.646;2023-05-29T14:06:36;27.40;52.20
31542;DHT22;18152;49.986;8.646;2023-05-29T14:09:02;27.40;51.40
31542;DHT22;18152;49.986;8.646;2023-05-29T14:11:28;27.40;51.60
31542;DHT22;18152;49.986;8.646;2023-05-29T14:13:53;27.40;53.60
31542;DHT22;18152;49.986;8.646;2023-05-29T14:16:19;27.20;56.80
31542;DHT22;18152;49.986;8.646;2023-05-29T14:18:44;26.90;50.90
31542;DHT22;18152;49.986;8.646;2023-05-29T14:21:10;27.00;50.00
31542;DHT22;18152;49.986;8.646;2023-05-29T14:23:36;27.20;49.90
31542;DHT22;18152;49.986;8.646;2023-05-29T14:26:02;27.50;52.10
31542;DHT22;18152;49.986;8.646;2023-05-29T14:28:28;27.60;50.50
31542;DHT22;18152;49.986;8.646;2023-05-29T14:30:53;27.20;49.80
31542;DHT22;18152;49.986;8.646;2023-05-29T14:33:19;26.70;51.00
31542;DHT22;18152;49.986;8.646;2023-05-29T14:35:44;26.40;54.10
31542;DHT22;18152;49.986;8.646;2023-05-29T14:38:10;26.30;53.90
31542;DHT22;18152;49.986;8.646;2023-05-29T14:40:36;26.30;51.80
31542;DHT22;18152;49.986;8.646;2023-05-29T14:43:02;26.30;51.20
31542;DHT22;18152;49.986;8.646;2023-05-29T14:45:28;26.30;52.90
31542;DHT22;18152;49.986;8.646;2023-05-29T14:47:54;26.30;51.10
31542;DHT22;18152;49.986;8.646;2023-05-29T14:50:19;26.50;58.40
31542;DHT22;18152;49.986;8.646;2023-05-29T14:52:45;26.30;55.20
31542;DHT22;18152;49.986;8.646;2023-05-29T14:55:13;26.70;56.10
31542;DHT22;18152;49.986;8.646;2023-05-29T14:57:40;26.20;55.20
31542;DHT22;18152;49.986;8.646;2023-05-29T15:00:07;26.20;59.30
31542;DHT22;18152;49.986;8.646;2023-05-29T15:02:33;26.10;59.00
31542;DHT22;18152;49.986;8.646;2023-05-29T15:04:59;26.20;58.40
31542;DHT22;18152;49.986;8.646;2023-05-29T15:07:25;26.20;57.10
31542;DHT22;18152;49.986;8.646;2023-05-29T15:09:50;26.10;56.20
31542;DHT22;18152;49.986;8.646;2023-05-29T15:12:16;25.80;56.20
31542;DHT22;18152;49.986;8.646;2023-05-29T15:14:41;25.90;60.10
31542;DHT22;18152;49.986;8.646;2023-05-29T15:17:07;25.70;59.40
31542;DHT22;18152;49.986;8.646;2023-05-29T15:19:33;25.90;58.90
31542;DHT22;18152;49.986;8.646;2023-05-29T15:21:58;25.90;60.80
31542;DHT22;18152;49.986;8.646;2023-05-29T15:24:24;25.60;59.20
31542;DHT22;18152;49.986;8.646;2023-05-29T15:26:50;25.80;58.90
31542;DHT22;18152;49.986;8.646;2023-05-29T15:29:16;25.70;56.10
31542;DHT22;18152;49.986;8.646;2023-05-29T15:31:41;25.70;60.60
31542;DHT22;18152;49.986;8.646;2023-05-29T15:34:07;25.60;66.20
31542;DHT22;18152;49.986;8.646;2023-05-29T15:36:33;25.30;59.10
31542;DHT22;18152;49.986;8.646;2023-05-29T15:39:02;25.30;65.00
31542;DHT22;18152;49.986;8.646;2023-05-29T15:41:27;25.10;64.80
31542;DHT22;18152;49.986;8.646;2023-05-29T15:43:57;25.10;61.60
31542;DHT22;18152;49.986;8.646;2023-05-29T15:46:26;25.50;61.20
31542;DHT22;18152;49.986;8.646;2023-05-29T15:48:52;25.40;62.00